Time;durP1;ratioP1;P1;durP2;ratioP2;P2;SDS_P1;SDS_P2;PMS_P1;PMS_P2;Temp;Humidity;BMP_temperature;BMP_pressure;BME280_temperature;BME280_humidity;BME280_pressure;Samples;Min_cycle;Max_cycle;Signal;HPM_P1;HPM_P2
2022/05/19 00:01:44;;;;;;;;;2.00;2.00;;;;;;;;5059550;28;8835;-79
2022/05/19 00:04:09;;;;;;;;;2.75;1.75;;;;;;;;5059077;28;10531;-79
2022/05/19 00:06:34;;;;;;;;;2.00;2.00;;;;;;;;5057465;28;11683;-78
2022/05/19 00:08:59;;;;;;;;;1.00;1.00;;;;;;;;5058886;28;10273;-78
2022/05/19 00:11:29;;;;;;;;;2.00;2.00;;;;;;;;5058739;28;9611;-79
2022/05/19 00:13:54;;;;;;;;;1.00;1.00;;;;;;;;5059013;28;9655;-78
2022/05/19 00:16:20;;;;;;;;;2.00;2.00;;;;;;;;5059001;28;9840;-79
2022/05/19 00:18:45;;;;;;;;;3.25;2.00;;;;;;;;5058521;28;8831;-78
2022/05/19 00:21:10;;;;;;;;;1.50;1.50;;;;;;;;5058488;28;8889;-78
2022/05/19 00:23:36;;;;;;;;;2.00;1.00;;;;;;;;5057218;28;13613;-78
2022/05/19 00:26:01;;;;;;;;;2.00;2.00;;;;;;;;5058311;28;11491;-78
2022/05/19 00:28:26;;;;;;;;;1.75;1.75;;;;;;;;5058561;28;8877;-78
2022/05/19 00:30:52;;;;;;;;;0.50;0.50;;;;;;;;5058605;28;11321;-78
2022/05/19 00:33:17;;;;;;;;;1.00;1.00;;;;;;;;5059086;28;11497;-78
2022/05/19 00:35:42;;;;;;;;;1.00;1.00;;;;;;;;5059132;28;11466;-78
2022/05/19 00:38:08;;;;;;;;;2.00;2.00;;;;;;;;5059076;28;8901;-78
2022/05/19 00:40:33;;;;;;;;;1.00;1.00;;;;;;;;5057336;28;10850;-79
2022/05/19 00:42:59;;;;;;;;;1.00;1.00;;;;;;;;5058944;28;8800;-79
2022/05/19 00:45:25;;;;;;;;;2.00;2.00;;;;;;;;5058986;28;8905;-79
2022/05/19 00:48:10;;;;;;;;;2.00;2.00;;;;;;;;5058532;28;10278;-79
2022/05/19 00:50:40;;;;;;;;;0.00;0.00;;;;;;;;5058657;28;10113;-79
2022/05/19 00:53:26;;;;;;;;;2.00;2.00;;;;;;;;5058332;28;9966;-79
2022/05/19 00:55:52;;;;;;;;;2.25;1.75;;;;;;;;5058382;28;9989;-79
2022/05/19 00:58:29;;;;;;;;;2.00;2.00;;;;;;;;5058513;28;10264;-79
2022/05/19 01:00:55;;;;;;;;;2.00;2.00;;;;;;;;5058272;28;10481;-78
2022/05/19 01:03:21;;;;;;;;;2.00;2.00;;;;;;;;5058505;28;10095;-76
2022/05/19 01:05:49;;;;;;;;;2.00;2.00;;;;;;;;5059478;28;8799;-79
2022/05/19 01:08:34;;;;;;;;;2.00;2.00;;;;;;;;5058564;28;9869;-79
2022/05/19 01:11:01;;;;;;;;;0.00;0.00;;;;;;;;5057268;28;9965;-79
2022/05/19 01:13:30;;;;;;;;;2.00;2.00;;;;;;;;5059192;28;9869;-78
2022/05/19 01:15:56;;;;;;;;;1.00;1.00;;;;;;;;5058098;28;10099;-77
2022/05/19 01:18:21;;;;;;;;;2.00;2.00;;;;;;;;5058424;28;10088;-78
2022/05/19 01:20:47;;;;;;;;;1.50;1.50;;;;;;;;5058873;28;8796;-78
2022/05/19 01:23:39;;;;;;;;;2.00;2.00;;;;;;;;5058119;28;11982;-78
2022/05/19 01:26:22;;;;;;;;;1.50;1.00;;;;;;;;5034302;28;11463;-77
2022/05/19 01:28:48;;;;;;;;;2.00;2.00;;;;;;;;5058458;28;10424;-77
2022/05/19 01:31:28;;;;;;;;;1.00;1.00;;;;;;;;5057770;28;10858;-77
2022/05/19 01:33:53;;;;;;;;;1.50;1.00;;;;;;;;5057241;28;8812;-77
2022/05/19 01:36:19;;;;;;;;;2.00;2.00;;;;;;;;5059125;28;9973;-78
2022/05/19 01:38:44;;;;;;;;;1.00;1.00;;;;;;;;5058091;28;10715;-79
2022/05/19 01:41:12;;;;;;;;;2.50;2.00;;;;;;;;5058568;28;8885;-79
2022/05/19 01:43:43;;;;;;;;;2.00;2.00;;;;;;;;5058129;28;10899;-78
2022/05/19 01:46:15;;;;;;;;;1.00;1.00;;;;;;;;5058721;28;10026;-78
2022/05/19 01:48:50;;;;;;;;;1.00;1.00;;;;;;;;5059045;28;10039;-78
2022/05/19 01:51:38;;;;;;;;;4.00;2.00;;;;;;;;5057245;28;10105;-78
2022/05/19 01:54:03;;;;;;;;;2.00;1.00;;;;;;;;5058222;28;10238;-78
2022/05/19 01:56:31;;;;;;;;;1.00;1.00;;;;;;;;5058309;28;10245;-79
2022/05/19 01:59:09;;;;;;;;;1.00;1.00;;;;;;;;5058866;28;8811;-79
2022/05/19 02:01:35;;;;;;;;;1.25;1.00;;;;;;;;5058372;28;10921;-79
2022/05/19 02:04:17;;;;;;;;;1.00;1.00;;;;;;;;5058621;28;10282;-80
2022/05/19 02:06:46;;;;;;;;;1.50;1.50;;;;;;;;5057024;28;8834;-78
2022/05/19 02:09:15;;;;;;;;;1.00;1.00;;;;;;;;5058410;28;10190;-79
2022/05/19 02:11:46;;;;;;;;;1.00;1.00;;;;;;;;5061897;28;10216;-79
2022/05/19 02:14:14;;;;;;;;;1.00;1.00;;;;;;;;5061869;28;10195;-79
2022/05/19 02:16:40;;;;;;;;;1.00;1.00;;;;;;;;5061305;28;11052;-79
2022/05/19 02:19:07;;;;;;;;;2.75;1.00;;;;;;;;5061932;28;10241;-79
2022/05/19 02:21:33;;;;;;;;;3.25;1.00;;;;;;;;5059911;28;11178;-79
2022/05/19 02:24:01;;;;;;;;;2.00;2.00;;;;;;;;5061262;28;10079;-79
2022/05/19 02:26:31;;;;;;;;;1.00;1.00;;;;;;;;5059453;28;12927;-79
2022/05/19 02:28:58;;;;;;;;;2.25;1.75;;;;;;;;5061278;28;10162;-79
2022/05/19 02:31:23;;;;;;;;;1.25;1.25;;;;;;;;5059320;28;11732;-79
2022/05/19 02:33:48;;;;;;;;;1.75;1.75;;;;;;;;5061260;28;10437;-78
2022/05/19 02:36:13;;;;;;;;;2.25;2.25;;;;;;;;5060902;28;8811;-77
2022/05/19 02:38:39;;;;;;;;;1.50;1.50;;;;;;;;5059423;28;10304;-77
2022/05/19 02:41:04;;;;;;;;;4.00;2.25;;;;;;;;5061234;28;12402;-77
2022/05/19 02:43:30;;;;;;;;;3.00;3.00;;;;;;;;5061527;28;11894;-78
2022/05/19 02:45:55;;;;;;;;;3.00;3.00;;;;;;;;5061449;28;11364;-78
2022/05/19 02:48:21;;;;;;;;;2.00;2.00;;;;;;;;5061746;28;8788;-79
2022/05/19 02:50:47;;;;;;;;;3.75;2.50;;;;;;;;5061466;28;8803;-79
2022/05/19 02:53:13;;;;;;;;;3.00;2.00;;;;;;;;5061406;28;11727;-79
2022/05/19 02:55:39;;;;;;;;;4.75;3.50;;;;;;;;5060882;28;10398;-79
2022/05/19 02:58:05;;;;;;;;;3.00;2.25;;;;;;;;5062063;28;11965;-79
2022/05/19 03:00:30;;;;;;;;;2.00;2.00;;;;;;;;5061689;28;11851;-79
2022/05/19 03:02:57;;;;;;;;;5.50;3.50;;;;;;;;5059550;28;13589;-79
2022/05/19 03:05:24;;;;;;;;;5.50;3.00;;;;;;;;5060925;28;11739;-79
2022/05/19 03:07:49;;;;;;;;;2.00;2.00;;;;;;;;5061613;28;10385;-79
2022/05/19 03:10:15;;;;;;;;;2.00;2.00;;;;;;;;5061532;28;10743;-79
2022/05/19 03:12:40;;;;;;;;;3.25;3.25;;;;;;;;5061473;28;9433;-79
2022/05/19 03:15:06;;;;;;;;;4.00;3.00;;;;;;;;5061068;28;11998;-78
2022/05/19 03:17:31;;;;;;;;;1.00;1.00;;;;;;;;5060564;28;11304;-79
2022/05/19 03:19:56;;;;;;;;;3.25;3.00;;;;;;;;5061056;28;8784;-79
2022/05/19 03:22:22;;;;;;;;;2.00;2.00;;;;;;;;5060300;28;10461;-79
2022/05/19 03:24:48;;;;;;;;;2.75;2.00;;;;;;;;5060658;28;10332;-80
2022/05/19 03:27:13;;;;;;;;;3.00;3.00;;;;;;;;5058395;28;8804;-77
2022/05/19 03:29:39;;;;;;;;;2.00;2.00;;;;;;;;5060695;28;11441;-79
2022/05/19 03:32:04;;;;;;;;;3.00;3.00;;;;;;;;5060601;28;8784;-79
2022/05/19 03:34:30;;;;;;;;;2.00;2.00;;;;;;;;5059826;28;8837;-79
2022/05/19 03:36:55;;;;;;;;;2.75;2.00;;;;;;;;5060062;28;8874;-78
2022/05/19 03:39:20;;;;;;;;;2.00;2.00;;;;;;;;5059368;28;8844;-76
2022/05/19 03:41:46;;;;;;;;;3.50;3.00;;;;;;;;5058326;28;8902;-75
2022/05/19 03:44:11;;;;;;;;;3.00;3.00;;;;;;;;5059899;28;10332;-74
2022/05/19 03:46:36;;;;;;;;;2.75;2.75;;;;;;;;5059678;28;8821;-73
2022/05/19 03:49:02;;;;;;;;;3.75;3.00;;;;;;;;5058769;28;11687;-76
2022/05/19 03:51:29;;;;;;;;;4.00;2.50;;;;;;;;5058317;28;11868;-77
2022/05/19 03:53:54;;;;;;;;;3.25;2.25;;;;;;;;5059521;28;11386;-76
2022/05/19 03:56:21;;;;;;;;;2.00;2.00;;;;;;;;5059286;28;11379;-79
2022/05/19 03:58:46;;;;;;;;;5.50;3.00;;;;;;;;5051419;28;14115;-81
2022/05/19 04:01:12;;;;;;;;;2.75;2.75;;;;;;;;5048427;28;11881;-82
2022/05/19 04:03:37;;;;;;;;;2.00;2.00;;;;;;;;5046214;28;11560;-81
2022/05/19 04:06:03;;;;;;;;;3.75;3.00;;;;;;;;5045910;28;8812;-81
2022/05/19 04:08:28;;;;;;;;;3.00;2.00;;;;;;;;5047904;28;10290;-82
2022/05/19 04:10:54;;;;;;;;;3.50;2.25;;;;;;;;5046195;28;9860;-78
2022/05/19 04:13:20;;;;;;;;;2.75;2.00;;;;;;;;5043583;28;8799;-80
2022/05/19 04:15:45;;;;;;;;;4.00;4.00;;;;;;;;5047810;28;11292;-80
2022/05/19 04:18:10;;;;;;;;;4.50;3.00;;;;;;;;5049561;28;10906;-81
2022/05/19 04:20:35;;;;;;;;;3.00;3.00;;;;;;;;5048370;28;9621;-77
2022/05/19 04:23:01;;;;;;;;;3.25;3.25;;;;;;;;5050121;28;8828;-77
2022/05/19 04:25:27;;;;;;;;;4.00;4.00;;;;;;;;5050245;28;8908;-76
2022/05/19 04:27:53;;;;;;;;;3.00;3.00;;;;;;;;5046769;28;11458;-76
2022/05/19 04:30:18;;;;;;;;;2.00;2.00;;;;;;;;5048624;28;11427;-77
2022/05/19 04:32:44;;;;;;;;;2.50;2.50;;;;;;;;5047478;28;8800;-76
2022/05/19 04:35:10;;;;;;;;;3.00;3.00;;;;;;;;5049622;28;10295;-76
2022/05/19 04:37:35;;;;;;;;;5.00;4.00;;;;;;;;5048019;28;11579;-76
2022/05/19 04:40:01;;;;;;;;;2.75;2.75;;;;;;;;5048923;28;8972;-75
2022/05/19 04:42:29;;;;;;;;;3.00;3.00;;;;;;;;5048202;28;11650;-76
2022/05/19 04:44:55;;;;;;;;;9.00;5.75;;;;;;;;5047588;28;11605;-75
2022/05/19 04:47:20;;;;;;;;;6.50;3.25;;;;;;;;5050599;28;11913;-76
2022/05/19 04:49:45;;;;;;;;;4.00;4.00;;;;;;;;5048148;28;10549;-75
2022/05/19 04:52:11;;;;;;;;;3.25;3.00;;;;;;;;5048675;28;11531;-75
2022/05/19 04:54:36;;;;;;;;;3.00;3.00;;;;;;;;5042106;28;10887;-77
2022/05/19 04:57:01;;;;;;;;;3.25;3.00;;;;;;;;5040208;28;8812;-78
2022/05/19 04:59:26;;;;;;;;;3.50;3.50;;;;;;;;5040386;28;8873;-83
2022/05/19 05:01:52;;;;;;;;;3.25;3.25;;;;;;;;5040557;28;9523;-84
2022/05/19 05:04:19;;;;;;;;;3.50;3.50;;;;;;;;5042479;28;8976;-90
2022/05/19 05:06:44;;;;;;;;;2.00;2.00;;;;;;;;5039867;28;9475;-82
2022/05/19 05:09:09;;;;;;;;;3.00;3.00;;;;;;;;5053063;28;13309;-87
2022/05/19 05:11:35;;;;;;;;;5.00;4.00;;;;;;;;5060758;28;9839;-84
2022/05/19 05:14:00;;;;;;;;;7.00;4.50;;;;;;;;5060064;28;9221;-86
2022/05/19 05:16:26;;;;;;;;;5.50;3.00;;;;;;;;5059799;28;11529;-79
2022/05/19 05:18:51;;;;;;;;;3.50;3.00;;;;;;;;5060516;28;13119;-75
2022/05/19 05:21:16;;;;;;;;;4.50;3.00;;;;;;;;5060110;28;8810;-74
2022/05/19 05:23:42;;;;;;;;;3.00;3.00;;;;;;;;5059792;28;8812;-75
2022/05/19 05:26:08;;;;;;;;;6.00;3.00;;;;;;;;5059355;28;9028;-75
2022/05/19 05:28:34;;;;;;;;;3.50;3.50;;;;;;;;5059578;28;8792;-77
2022/05/19 05:31:00;;;;;;;;;3.75;3.75;;;;;;;;5060641;28;12119;-77
2022/05/19 05:33:25;;;;;;;;;5.00;5.00;;;;;;;;5060806;28;11473;-79
2022/05/19 05:35:51;;;;;;;;;4.00;3.00;;;;;;;;5060610;28;12049;-78
2022/05/19 05:38:17;;;;;;;;;4.00;4.00;;;;;;;;5060367;28;9686;-79
2022/05/19 05:40:42;;;;;;;;;2.00;2.00;;;;;;;;5057436;28;8796;-74
2022/05/19 05:43:09;;;;;;;;;3.00;3.00;;;;;;;;5057859;28;10931;-76
2022/05/19 05:45:34;;;;;;;;;3.00;3.00;;;;;;;;5060635;28;8765;-75
2022/05/19 05:47:59;;;;;;;;;3.25;3.25;;;;;;;;5076391;28;11600;-74
2022/05/19 05:50:25;;;;;;;;;6.25;3.00;;;;;;;;5060389;28;8948;-74
2022/05/19 05:52:50;;;;;;;;;3.00;3.00;;;;;;;;5062564;28;11303;-74
2022/05/19 05:55:15;;;;;;;;;3.75;2.75;;;;;;;;5062779;28;8892;-73
2022/05/19 05:57:40;;;;;;;;;6.00;3.00;;;;;;;;5062468;28;10295;-76
2022/05/19 06:00:07;;;;;;;;;3.25;2.75;;;;;;;;5062667;28;11732;-78
2022/05/19 06:02:32;;;;;;;;;6.00;3.25;;;;;;;;5062955;28;11429;-78
2022/05/19 06:05:01;;;;;;;;;4.00;4.00;;;;;;;;5062185;28;11055;-75
2022/05/19 06:07:29;;;;;;;;;4.00;4.00;;;;;;;;5060514;28;13420;-86
2022/05/19 06:09:54;;;;;;;;;6.00;4.00;;;;;;;;5061663;28;11202;-75
2022/05/19 06:12:19;;;;;;;;;6.75;6.00;;;;;;;;5061729;28;10934;-75
2022/05/19 06:14:45;;;;;;;;;2.00;2.00;;;;;;;;5051316;28;10003;-77
2022/05/19 06:17:10;;;;;;;;;6.50;4.00;;;;;;;;5049106;28;10417;-77
2022/05/19 06:19:35;;;;;;;;;4.25;4.25;;;;;;;;5051863;28;10382;-76
2022/05/19 06:22:00;;;;;;;;;5.00;3.00;;;;;;;;5049609;28;12475;-77
2022/05/19 06:24:26;;;;;;;;;6.75;3.75;;;;;;;;5050884;28;11711;-77
2022/05/19 06:26:51;;;;;;;;;10.75;9.50;;;;;;;;5050911;28;11296;-75
2022/05/19 06:29:16;;;;;;;;;21.25;21.00;;;;;;;;5047460;28;23702;-76
2022/05/19 06:31:42;;;;;;;;;6.50;4.00;;;;;;;;5052016;28;22511;-75
2022/05/19 06:34:07;;;;;;;;;7.00;7.00;;;;;;;;5045579;28;22468;-75
2022/05/19 06:36:32;;;;;;;;;5.50;5.50;;;;;;;;5047188;28;10500;-75
2022/05/19 06:38:58;;;;;;;;;6.75;6.75;;;;;;;;5048832;28;11498;-76
2022/05/19 06:44:07;;;;;;;;;3.00;3.00;;;;;;;;5051899;28;11495;-77
2022/05/19 06:46:33;;;;;;;;;3.50;3.00;;;;;;;;5051735;28;11114;-77
2022/05/19 06:49:02;;;;;;;;;2.00;2.00;;;;;;;;5049543;28;8823;-76
2022/05/19 06:51:27;;;;;;;;;5.00;4.00;;;;;;;;5048804;28;11676;-75
2022/05/19 06:53:53;;;;;;;;;4.00;4.00;;;;;;;;5058932;28;10942;-74
2022/05/19 06:56:18;;;;;;;;;5.00;5.00;;;;;;;;5062135;28;8776;-78
2022/05/19 06:58:43;;;;;;;;;5.75;4.00;;;;;;;;5062199;28;8797;-77
2022/05/19 07:01:08;;;;;;;;;3.75;3.00;;;;;;;;5052350;28;9760;-75
2022/05/19 07:03:34;;;;;;;;;1.00;1.00;;;;;;;;5050887;28;8832;-76
2022/05/19 07:05:59;;;;;;;;;4.00;4.00;;;;;;;;5050694;28;10248;-76
2022/05/19 07:08:26;;;;;;;;;2.25;2.25;;;;;;;;5049024;28;9191;-77
2022/05/19 07:10:51;;;;;;;;;4.00;2.00;;;;;;;;5051076;28;11816;-77
2022/05/19 07:13:17;;;;;;;;;4.25;3.00;;;;;;;;5047367;28;11366;-78
2022/05/19 07:15:42;;;;;;;;;3.50;2.25;;;;;;;;5051148;28;9443;-86
2022/05/19 07:18:08;;;;;;;;;7.25;3.00;;;;;;;;5049501;28;11284;-77
2022/05/19 07:20:47;;;;;;;;;3.00;3.00;;;;;;;;5050868;28;12456;-80
2022/05/19 07:23:15;;;;;;;;;4.00;4.00;;;;;;;;5049899;28;11482;-81
2022/05/19 07:25:41;;;;;;;;;3.00;3.00;;;;;;;;5050505;28;10251;-77
2022/05/19 07:28:07;;;;;;;;;3.25;3.25;;;;;;;;5048377;28;10022;-78
2022/05/19 07:30:32;;;;;;;;;4.00;4.00;;;;;;;;5051260;28;8994;-78
2022/05/19 07:32:59;;;;;;;;;5.50;4.00;;;;;;;;5050540;28;11593;-76
2022/05/19 07:35:24;;;;;;;;;2.00;2.00;;;;;;;;5049344;28;8906;-78
2022/05/19 07:37:51;;;;;;;;;4.50;4.00;;;;;;;;5051424;28;10779;-77
2022/05/19 07:40:16;;;;;;;;;5.00;4.50;;;;;;;;5049265;28;10914;-78
2022/05/19 07:42:42;;;;;;;;;5.00;4.00;;;;;;;;5049275;28;11350;-77
2022/05/19 07:45:08;;;;;;;;;2.00;2.00;;;;;;;;5050661;28;8915;-78
2022/05/19 07:47:33;;;;;;;;;4.00;4.00;;;;;;;;5050006;28;9019;-76
2022/05/19 07:49:59;;;;;;;;;3.00;3.00;;;;;;;;5049523;28;10090;-78
2022/05/19 07:52:26;;;;;;;;;4.00;4.00;;;;;;;;5048413;28;8807;-80
2022/05/19 07:54:52;;;;;;;;;4.00;4.00;;;;;;;;5046953;28;8817;-75
2022/05/19 07:57:18;;;;;;;;;5.33;5.33;;;;;;;;5039627;28;9038;-77
2022/05/19 07:59:43;;;;;;;;;3.00;3.00;;;;;;;;5057154;28;11476;-77
2022/05/19 08:02:09;;;;;;;;;6.33;5.00;;;;;;;;5060458;28;11320;-77
2022/05/19 08:04:34;;;;;;;;;6.33;4.00;;;;;;;;5060502;28;10296;-77
2022/05/19 08:07:01;;;;;;;;;7.00;4.67;;;;;;;;5060524;28;8776;-77
2022/05/19 08:17:48;;;;;;;;;4.75;4.50;;;;;;;;5060413;28;10323;-77
2022/05/19 08:20:13;;;;;;;;;5.00;4.33;;;;;;;;5060574;28;9362;-77
2022/05/19 08:22:39;;;;;;;;;3.33;3.33;;;;;;;;5060501;28;11780;-78
2022/05/19 08:25:04;;;;;;;;;4.00;4.00;;;;;;;;5058668;28;12685;-80
2022/05/19 08:27:29;;;;;;;;;6.00;5.33;;;;;;;;5045395;28;11914;-75
2022/05/19 08:29:55;;;;;;;;;5.67;4.33;;;;;;;;5046022;28;11290;-76
2022/05/19 08:32:20;;;;;;;;;3.00;3.00;;;;;;;;5041134;28;10507;-77
2022/05/19 08:34:45;;;;;;;;;6.00;3.33;;;;;;;;5039707;28;11401;-77
2022/05/19 08:37:11;;;;;;;;;3.00;2.67;;;;;;;;5040718;28;11307;-77
2022/05/19 08:39:36;;;;;;;;;4.33;3.00;;;;;;;;5040250;28;11962;-77
2022/05/19 08:42:04;;;;;;;;;5.33;4.00;;;;;;;;5040748;28;11530;-77
2022/05/19 08:44:29;;;;;;;;;4.75;4.25;;;;;;;;5039833;28;10135;-77
2022/05/19 08:46:57;;;;;;;;;6.00;6.00;;;;;;;;5039989;28;11831;-77
2022/05/19 08:49:30;;;;;;;;;5.00;5.00;;;;;;;;5040485;28;11379;-77
2022/05/19 08:52:00;;;;;;;;;4.00;4.00;;;;;;;;5040125;28;8782;-77
2022/05/19 08:54:25;;;;;;;;;6.25;5.50;;;;;;;;5040018;28;9334;-78
2022/05/19 08:57:04;;;;;;;;;4.00;4.00;;;;;;;;5039093;28;13508;-77
2022/05/19 08:59:36;;;;;;;;;4.00;4.00;;;;;;;;5039890;28;11467;-77
2022/05/19 09:02:13;;;;;;;;;3.75;3.75;;;;;;;;5039269;28;8795;-77
2022/05/19 09:04:53;;;;;;;;;5.00;4.50;;;;;;;;5039741;28;11392;-77
2022/05/19 09:10:20;;;;;;;;;3.75;3.00;;;;;;;;5040019;28;11359;-77
2022/05/19 09:12:49;;;;;;;;;5.00;3.00;;;;;;;;5040671;28;9826;-77
2022/05/19 09:15:14;;;;;;;;;5.00;3.50;;;;;;;;5039760;28;8880;-77
2022/05/19 09:17:43;;;;;;;;;4.00;4.00;;;;;;;;5040092;28;8814;-80
2022/05/19 09:20:11;;;;;;;;;4.50;2.75;;;;;;;;5042832;28;11782;-81
2022/05/19 09:22:37;;;;;;;;;4.25;4.25;;;;;;;;5057264;28;10609;-81
2022/05/19 09:25:04;;;;;;;;;3.67;3.00;;;;;;;;5051793;28;10002;-81
2022/05/19 09:27:30;;;;;;;;;4.00;3.25;;;;;;;;5048868;28;11553;-79
2022/05/19 09:29:56;;;;;;;;;4.00;4.00;;;;;;;;5045428;28;14104;-79
2022/05/19 09:32:29;;;;;;;;;8.75;8.75;;;;;;;;5048572;28;8887;-81
2022/05/19 09:35:04;;;;;;;;;6.25;6.25;;;;;;;;5049057;28;11389;-82
2022/05/19 09:37:37;;;;;;;;;6.00;6.00;;;;;;;;5049232;28;10359;-80
2022/05/19 09:40:12;;;;;;;;;3.25;3.25;;;;;;;;5049174;28;8941;-81
2022/05/19 09:42:54;;;;;;;;;3.25;3.25;;;;;;;;5047084;28;12218;-81
2022/05/19 09:45:21;;;;;;;;;3.00;3.00;;;;;;;;5047970;28;8812;-80
2022/05/19 09:47:48;;;;;;;;;2.75;2.75;;;;;;;;5048889;28;8784;-80
2022/05/19 09:50:16;;;;;;;;;4.25;4.25;;;;;;;;5049430;28;12523;-81
2022/05/19 09:52:42;;;;;;;;;2.50;2.50;;;;;;;;5044798;28;10431;-82
2022/05/19 09:55:08;;;;;;;;;2.33;2.33;;;;;;;;5047769;28;11339;-81
2022/05/19 09:57:40;;;;;;;;;4.75;3.25;;;;;;;;5047421;28;9824;-84
2022/05/19 10:00:26;;;;;;;;;4.00;4.00;;;;;;;;5057058;28;13015;-81
2022/05/19 10:02:55;;;;;;;;;3.25;3.25;;;;;;;;5090773;28;10823;-80
2022/05/19 10:05:31;;;;;;;;;4.00;4.00;;;;;;;;5057651;28;13276;-82
2022/05/19 10:08:00;;;;;;;;;4.50;3.75;;;;;;;;5050055;28;11796;-81
2022/05/19 10:10:27;;;;;;;;;1.25;1.25;;;;;;;;5048751;28;10810;-84
2022/05/19 10:12:56;;;;;;;;;3.00;3.00;;;;;;;;5048193;28;12753;-83
2022/05/19 10:15:26;;;;;;;;;3.75;3.75;;;;;;;;5046526;28;14306;-82
2022/05/19 10:17:52;;;;;;;;;4.00;4.00;;;;;;;;5046574;28;8784;-80
2022/05/19 10:20:19;;;;;;;;;4.00;4.00;;;;;;;;5047987;28;11613;-83
2022/05/19 10:22:44;;;;;;;;;5.00;4.00;;;;;;;;5046395;28;8803;-83
2022/05/19 10:25:28;;;;;;;;;5.00;5.00;;;;;;;;5048846;28;8798;-84
2022/05/19 10:31:07;;;;;;;;;5.00;3.00;;;;;;;;5049254;28;10290;-77
2022/05/19 10:33:44;;;;;;;;;3.50;3.50;;;;;;;;5049398;28;10908;-78
2022/05/19 10:36:10;;;;;;;;;4.00;4.00;;;;;;;;5050161;28;11471;-77
2022/05/19 10:38:57;;;;;;;;;6.00;4.00;;;;;;;;5051956;28;11481;-77
2022/05/19 10:41:34;;;;;;;;;7.00;7.00;;;;;;;;5051031;28;8893;-77
2022/05/19 10:44:17;;;;;;;;;10.00;9.50;;;;;;;;5052004;28;8811;-77
2022/05/19 10:46:49;;;;;;;;;5.00;4.00;;;;;;;;5051134;28;21977;-77
2022/05/19 10:49:17;;;;;;;;;4.75;4.25;;;;;;;;5051754;28;21713;-77
2022/05/19 10:51:45;;;;;;;;;8.00;8.00;;;;;;;;5050767;28;11409;-75
2022/05/19 10:54:17;;;;;;;;;5.00;5.00;;;;;;;;5054130;28;11402;-77
2022/05/19 10:56:46;;;;;;;;;5.00;4.00;;;;;;;;5049972;28;10307;-77
2022/05/19 10:59:29;;;;;;;;;5.50;5.50;;;;;;;;5077842;28;9600;-78
2022/05/19 11:01:58;;;;;;;;;10.75;9.50;;;;;;;;5062609;28;11739;-84
2022/05/19 11:04:38;;;;;;;;;3.50;3.50;;;;;;;;5044935;28;23781;-82
2022/05/19 11:07:09;;;;;;;;;6.00;4.50;;;;;;;;5041024;28;22250;-85
2022/05/19 11:09:53;;;;;;;;;5.25;4.00;;;;;;;;5041973;28;10512;-83
2022/05/19 11:12:34;;;;;;;;;4.00;4.00;;;;;;;;5039802;28;13587;-80
2022/05/19 11:15:02;;;;;;;;;5.00;5.00;;;;;;;;5047073;28;8867;-82
2022/05/19 11:17:46;;;;;;;;;6.00;5.00;;;;;;;;5041422;28;10628;-82
2022/05/19 11:20:20;;;;;;;;;5.00;5.00;;;;;;;;5059123;28;9352;-83
2022/05/19 11:22:48;;;;;;;;;9.00;9.00;;;;;;;;5041626;28;8787;-82
2022/05/19 11:28:14;;;;;;;;;6.33;6.33;;;;;;;;5041834;28;8876;-83
2022/05/19 11:30:45;;;;;;;;;11.67;11.67;;;;;;;;5041627;28;11886;-83
2022/05/19 11:33:13;;;;;;;;;7.75;6.00;;;;;;;;5045889;28;24311;-83
2022/05/19 11:35:41;;;;;;;;;9.00;7.33;;;;;;;;5055327;28;24435;-87
2022/05/19 11:38:18;;;;;;;;;1.25;1.25;;;;;;;;5049332;28;11484;-82
2022/05/19 11:40:48;;;;;;;;;11.00;10.00;;;;;;;;5050782;28;10615;-86
2022/05/19 11:43:21;;;;;;;;;3.50;3.50;;;;;;;;5048469;28;24176;-86
2022/05/19 11:45:50;;;;;;;;;3.00;2.00;;;;;;;;5049711;28;24781;-85
2022/05/19 11:57:14;;;;;;;;;3.75;3.00;;;;;;;;5035100;28;10274;-85
2022/05/19 11:59:43;;;;;;;;;4.00;4.00;;;;;;;;5039641;28;11742;-85
2022/05/19 12:02:09;;;;;;;;;3.00;3.00;;;;;;;;5040770;28;11690;-83
2022/05/19 12:04:37;;;;;;;;;4.75;4.00;;;;;;;;5041198;28;9483;-83
2022/05/19 12:07:08;;;;;;;;;2.00;2.00;;;;;;;;5040298;28;10345;-83
2022/05/19 12:09:41;;;;;;;;;2.00;2.00;;;;;;;;5038905;28;12244;-83
2022/05/19 12:12:27;;;;;;;;;9.00;6.00;;;;;;;;5039603;28;8811;-84
2022/05/19 12:15:04;;;;;;;;;3.75;2.75;;;;;;;;5040691;28;8833;-88
2022/05/19 12:17:31;;;;;;;;;6.00;6.00;;;;;;;;5040656;28;11625;-82
2022/05/19 12:19:58;;;;;;;;;3.50;3.50;;;;;;;;5040730;28;11914;-82
2022/05/19 12:22:23;;;;;;;;;3.00;3.00;;;;;;;;5039730;28;11719;-86
2022/05/19 12:24:53;;;;;;;;;2.00;2.00;;;;;;;;5054616;28;9679;-87
2022/05/19 12:27:21;;;;;;;;;3.25;3.00;;;;;;;;5048816;28;10659;-86
2022/05/19 12:30:00;;;;;;;;;3.00;3.00;;;;;;;;5047819;28;12525;-86
2022/05/19 12:32:35;;;;;;;;;3.75;2.75;;;;;;;;5039533;28;9970;-87
2022/05/19 12:35:02;;;;;;;;;3.50;3.50;;;;;;;;5039090;28;12891;-86
2022/05/19 12:37:43;;;;;;;;;6.00;3.75;;;;;;;;5040284;28;11333;-89
2022/05/19 12:40:21;;;;;;;;;4.00;4.00;;;;;;;;5041616;28;11557;-89
2022/05/19 12:42:48;;;;;;;;;6.50;5.75;;;;;;;;5041037;28;11965;-90
2022/05/19 12:45:21;;;;;;;;;3.25;3.00;;;;;;;;5040489;28;11420;-87
2022/05/19 12:48:00;;;;;;;;;2.00;2.00;;;;;;;;5042292;28;14199;-88
2022/05/19 12:50:43;;;;;;;;;6.50;6.50;;;;;;;;5059395;28;12605;-87
2022/05/19 12:53:29;;;;;;;;;4.00;2.75;;;;;;;;5051218;28;13408;-87
2022/05/19 12:55:56;;;;;;;;;5.25;5.25;;;;;;;;5029125;28;13780;-87
2022/05/19 12:58:34;;;;;;;;;2.75;1.75;;;;;;;;5049702;28;12388;-86
2022/05/19 13:01:18;;;;;;;;;6.00;3.00;;;;;;;;5082365;28;13974;-87
2022/05/19 13:03:44;;;;;;;;;2.25;2.25;;;;;;;;5083118;28;13451;-87
2022/05/19 13:06:12;;;;;;;;;2.00;2.00;;;;;;;;5048705;28;11616;-86
2022/05/19 13:08:42;;;;;;;;;3.75;2.00;;;;;;;;5050031;28;8811;-86
2022/05/19 13:11:09;;;;;;;;;2.25;2.00;;;;;;;;5048248;28;8845;-85
2022/05/19 13:13:50;;;;;;;;;3.00;3.00;;;;;;;;5047205;28;9012;-87
2022/05/19 13:16:18;;;;;;;;;7.33;7.00;;;;;;;;5046448;28;12185;-85
2022/05/19 13:18:47;;;;;;;;;6.00;6.00;;;;;;;;5050459;28;12454;-87
2022/05/19 13:21:42;;;;;;;;;4.25;3.25;;;;;;;;5046061;28;12958;-86
2022/05/19 13:24:10;;;;;;;;;5.75;5.75;;;;;;;;5013933;28;13723;-86
2022/05/19 13:26:37;;;;;;;;;2.50;2.50;;;;;;;;5047006;28;12543;-85
2022/05/19 13:32:03;;;;;;;;;8.00;7.67;;;;;;;;5049363;28;11307;-86
2022/05/19 13:34:48;;;;;;;;;1.00;0.00;;;;;;;;5052088;28;13623;-88
2022/05/19 13:37:27;;;;;;;;;3.25;3.25;;;;;;;;5049930;28;11456;-87
2022/05/19 15:13:02;;;;;;;;;3.33;3.00;;;;;;;;5076220;27;2422240;-82
2022/05/19 15:15:28;;;;;;;;;3.00;3.00;;;;;;;;5145395;27;21808;-82
2022/05/19 15:17:54;;;;;;;;;5.00;4.00;;;;;;;;5128882;27;8786;-81
2022/05/19 15:20:20;;;;;;;;;4.00;3.00;;;;;;;;5152981;27;10333;-80
2022/05/19 15:22:47;;;;;;;;;4.00;3.00;;;;;;;;5130484;27;10942;-81
2022/05/19 15:25:12;;;;;;;;;4.00;3.25;;;;;;;;5147375;27;12113;-81
2022/05/19 15:27:41;;;;;;;;;3.00;3.00;;;;;;;;5147330;27;8798;-79
2022/05/19 15:30:11;;;;;;;;;4.50;3.50;;;;;;;;5148964;27;11601;-78
2022/05/19 15:32:36;;;;;;;;;3.50;3.50;;;;;;;;5147550;27;11992;-80
2022/05/19 15:35:02;;;;;;;;;3.00;3.00;;;;;;;;5148182;27;8804;-78
2022/05/19 15:37:27;;;;;;;;;4.33;3.00;;;;;;;;5127348;27;9244;-80
2022/05/19 15:39:53;;;;;;;;;2.67;2.67;;;;;;;;5137500;27;9039;-80
2022/05/19 15:42:20;;;;;;;;;2.33;2.00;;;;;;;;5137629;27;11834;-84
2022/05/19 15:44:45;;;;;;;;;2.50;2.50;;;;;;;;5138766;27;8765;-84
2022/05/19 15:47:14;;;;;;;;;3.00;3.00;;;;;;;;5119385;27;8930;-88
2022/05/19 15:49:39;;;;;;;;;5.50;3.50;;;;;;;;5137807;27;11733;-88
2022/05/19 15:52:05;;;;;;;;;4.67;4.00;;;;;;;;5137743;27;11828;-84
2022/05/19 15:54:30;;;;;;;;;4.00;4.00;;;;;;;;5118338;27;13533;-80
2022/05/19 15:56:55;;;;;;;;;2.67;2.00;;;;;;;;5136570;27;8807;-78
2022/05/19 15:59:20;;;;;;;;;3.00;3.00;;;;;;;;5136686;27;10600;-77
2022/05/19 16:01:46;;;;;;;;;4.33;4.00;;;;;;;;5137161;27;10462;-80
2022/05/19 16:04:12;;;;;;;;;5.00;5.00;;;;;;;;5138046;27;11020;-88
2022/05/19 16:06:37;;;;;;;;;8.00;5.67;;;;;;;;5131177;27;12705;-82
2022/05/19 16:09:05;;;;;;;;;5.00;4.00;;;;;;;;5157796;27;11269;-82
2022/05/19 16:11:30;;;;;;;;;3.25;3.25;;;;;;;;5156895;27;11680;-81
2022/05/19 16:13:56;;;;;;;;;4.33;4.00;;;;;;;;5157070;27;12996;-81
2022/05/19 16:16:22;;;;;;;;;3.00;3.00;;;;;;;;5156855;27;11362;-81
2022/05/19 16:18:47;;;;;;;;;6.00;5.00;;;;;;;;5137712;27;12763;-80
2022/05/19 16:21:16;;;;;;;;;4.00;4.00;;;;;;;;5157962;27;8985;-80
2022/05/19 16:23:41;;;;;;;;;5.00;4.00;;;;;;;;5147196;27;8918;-82
2022/05/19 16:26:07;;;;;;;;;8.00;7.67;;;;;;;;5142849;27;8775;-81
2022/05/19 16:28:32;;;;;;;;;4.00;4.00;;;;;;;;5143263;27;11757;-83
2022/05/19 16:30:57;;;;;;;;;4.00;4.00;;;;;;;;5142138;27;11505;-82
2022/05/19 16:33:23;;;;;;;;;5.00;5.00;;;;;;;;5143120;27;8806;-82
2022/05/19 16:35:49;;;;;;;;;6.33;4.67;;;;;;;;5143431;27;8778;-85
2022/05/19 16:38:17;;;;;;;;;3.67;3.00;;;;;;;;5143097;27;11504;-80
2022/05/19 16:40:42;;;;;;;;;5.75;4.25;;;;;;;;5142666;27;12139;-81
2022/05/19 16:43:08;;;;;;;;;4.00;4.00;;;;;;;;5142972;27;11855;-81
2022/05/19 16:45:34;;;;;;;;;5.00;4.00;;;;;;;;5143405;27;12703;-81
2022/05/19 16:48:00;;;;;;;;;4.00;4.00;;;;;;;;5143805;27;8750;-81
2022/05/19 16:50:26;;;;;;;;;2.33;2.33;;;;;;;;5142999;27;8816;-81
2022/05/19 16:52:51;;;;;;;;;4.00;3.00;;;;;;;;5142798;27;11650;-86
2022/05/19 16:58:04;;;;;;;;;4.00;4.00;;;;;;;;5120284;27;11351;-82
2022/05/19 17:00:34;;;;;;;;;4.00;4.00;;;;;;;;5143106;27;9057;-89
2022/05/19 17:02:59;;;;;;;;;4.00;4.00;;;;;;;;5143582;27;8770;-85